Main page
METAR-TAF:

METAR-TAF

Airports :

Mehrabad International Airport

Tehran, Iran

latitude: 35-41N, longitude: 051-21E, elevation: 1204 m

Current weather observation

The report was made 15 minutes ago, at 06:30 UTC
Wind 10 kt from the Southeast
Temperature 36°C
Humidity 10%
Pressure 1010 hPa
Visibility 10 km or more
no clouds below 1500 m and no cumulonimbus

METAR: OIII 180630Z 14010KT CAVOK 36/M00 Q1009 A2982

Time: 11:15 (06:45 UTC)

Forecast

The report was made 1 hour and 45 minutes ago, at 05:00 UTC
Forecast valid from 18 at 06 UTC to 19 at 12 UTC
Wind 8 kt from the East/Northeast
Visibility: 7000 m
Temporary
from 18 at 15 UTC to 18 at 24 UTC
Wind 14 kt from the Northwest

TAF: OIII 180500Z 1806/1912 07004MPS 7000 NSC TEMPO 1815/1824 32007MPS

Weather observations and forecasts of more than 4000 airports (METAR and TAF reports).

The available stations are represented by yellow and red dots on the map.

Hover mouse over dot to see the name of the station.

Then click to see weather observations and forecasts.

To change the map : click on the green buttons with a black cross to zoom in, on the green button with a dash to zoom out, or on the green arrows for adjacent maps.


METAR-TAF: